sensor_id;sensor_type;location;lat;lon;timestamp;temperature;humidity
4964;DHT22;2497;47.410;9.740;2022-11-15T00:01:02;8.10;99.90
4964;DHT22;2497;47.410;9.740;2022-11-15T00:03:33;8.20;99.90
4964;DHT22;2497;47.410;9.740;2022-11-15T00:06:02;8.30;99.90
4964;DHT22;2497;47.410;9.740;2022-11-15T00:08:31;8.40;99.90
4964;DHT22;2497;47.410;9.740;2022-11-15T00:11:00;8.40;99.90
4964;DHT22;2497;47.410;9.740;2022-11-15T00:13:29;8.20;99.90
4964;DHT22;2497;47.410;9.740;2022-11-15T00:15:58;8.10;99.90
4964;DHT22;2497;47.410;9.740;2022-11-15T00:18:27;8.00;99.90
4964;DHT22;2497;47.410;9.740;2022-11-15T00:20:55;8.00;99.90
4964;DHT22;2497;47.410;9.740;2022-11-15T00:23:24;8.10;99.90
4964;DHT22;2497;47.410;9.740;2022-11-15T00:25:56;8.20;99.90
4964;DHT22;2497;47.410;9.740;2022-11-15T00:28:24;8.20;99.90
4964;DHT22;2497;47.410;9.740;2022-11-15T00:30:51;8.20;99.90
4964;DHT22;2497;47.410;9.740;2022-11-15T00:33:21;8.10;99.90
4964;DHT22;2497;47.410;9.740;2022-11-15T00:35:48;8.00;99.90
4964;DHT22;2497;47.410;9.740;2022-11-15T00:38:16;8.00;99.90
4964;DHT22;2497;47.410;9.740;2022-11-15T00:40:44;8.00;99.90
4964;DHT22;2497;47.410;9.740;2022-11-15T00:43:12;8.10;99.90
4964;DHT22;2497;47.410;9.740;2022-11-15T00:45:39;8.10;99.90
4964;DHT22;2497;47.410;9.740;2022-11-15T00:48:08;8.00;99.90
4964;DHT22;2497;47.410;9.740;2022-11-15T00:50:37;8.00;99.90
4964;DHT22;2497;47.410;9.740;2022-11-15T00:53:05;7.90;99.90
4964;DHT22;2497;47.410;9.740;2022-11-15T00:55:33;7.90;99.90
4964;DHT22;2497;47.410;9.740;2022-11-15T00:58:00;7.80;99.90
4964;DHT22;2497;47.410;9.740;2022-11-15T01:00:28;7.80;99.90
4964;DHT22;2497;47.410;9.740;2022-11-15T01:02:55;8.00;99.90
4964;DHT22;2497;47.410;9.740;2022-11-15T01:05:23;8.00;99.90
4964;DHT22;2497;47.410;9.740;2022-11-15T01:07:54;8.00;99.90
4964;DHT22;2497;47.410;9.740;2022-11-15T01:10:22;7.80;99.90
4964;DHT22;2497;47.410;9.740;2022-11-15T01:12:50;7.80;99.90
4964;DHT22;2497;47.410;9.740;2022-11-15T01:15:18;7.80;99.90
4964;DHT22;2497;47.410;9.740;2022-11-15T01:17:45;7.70;99.90
4964;DHT22;2497;47.410;9.740;2022-11-15T01:20:13;7.80;99.90
4964;DHT22;2497;47.410;9.740;2022-11-15T01:22:40;7.70;99.90
4964;DHT22;2497;47.410;9.740;2022-11-15T01:25:09;7.60;99.90
4964;DHT22;2497;47.410;9.740;2022-11-15T01:27:36;7.50;99.90
4964;DHT22;2497;47.410;9.740;2022-11-15T01:30:05;7.40;99.90
4964;DHT22;2497;47.410;9.740;2022-11-15T01:32:34;7.30;99.90
4964;DHT22;2497;47.410;9.740;2022-11-15T01:35:01;7.30;99.90
4964;DHT22;2497;47.410;9.740;2022-11-15T01:37:29;7.30;99.90
4964;DHT22;2497;47.410;9.740;2022-11-15T01:39:57;7.30;99.90
4964;DHT22;2497;47.410;9.740;2022-11-15T01:42:25;7.30;99.90
4964;DHT22;2497;47.410;9.740;2022-11-15T01:44:53;7.40;99.90
4964;DHT22;2497;47.410;9.740;2022-11-15T01:47:23;7.50;99.90
4964;DHT22;2497;47.410;9.740;2022-11-15T01:49:55;7.40;99.90
4964;DHT22;2497;47.410;9.740;2022-11-15T01:52:26;7.40;99.90
4964;DHT22;2497;47.410;9.740;2022-11-15T01:54:58;7.20;99.90
4964;DHT22;2497;47.410;9.740;2022-11-15T01:57:29;7.00;99.90
4964;DHT22;2497;47.410;9.740;2022-11-15T01:59:57;7.00;99.90
4964;DHT22;2497;47.410;9.740;2022-11-15T02:02:26;6.90;99.90
4964;DHT22;2497;47.410;9.740;2022-11-15T02:04:54;6.80;99.90
4964;DHT22;2497;47.410;9.740;2022-11-15T02:07:24;6.70;99.90
4964;DHT22;2497;47.410;9.740;2022-11-15T02:09:52;6.70;99.90
4964;DHT22;2497;47.410;9.740;2022-11-15T02:12:21;6.60;99.90
4964;DHT22;2497;47.410;9.740;2022-11-15T02:14:52;6.50;99.90
4964;DHT22;2497;47.410;9.740;2022-11-15T02:17:33;6.60;99.90
4964;DHT22;2497;47.410;9.740;2022-11-15T02:20:29;6.40;99.90
4964;DHT22;2497;47.410;9.740;2022-11-15T02:26:14;6.30;99.90
4964;DHT22;2497;47.410;9.740;2022-11-15T02:28:51;6.20;99.90
4964;DHT22;2497;47.410;9.740;2022-11-15T02:31:27;6.10;99.90
4964;DHT22;2497;47.410;9.740;2022-11-15T02:34:04;6.10;99.90
4964;DHT22;2497;47.410;9.740;2022-11-15T02:36:39;6.10;99.90
4964;DHT22;2497;47.410;9.740;2022-11-15T02:39:13;6.00;99.90
4964;DHT22;2497;47.410;9.740;2022-11-15T02:41:47;6.00;99.90
4964;DHT22;2497;47.410;9.740;2022-11-15T02:44:19;6.10;99.90
4964;DHT22;2497;47.410;9.740;2022-11-15T02:46:51;6.00;99.90
4964;DHT22;2497;47.410;9.740;2022-11-15T02:49:37;5.90;99.90
4964;DHT22;2497;47.410;9.740;2022-11-15T02:52:06;5.90;99.90
4964;DHT22;2497;47.410;9.740;2022-11-15T02:54:34;5.80;99.90
4964;DHT22;2497;47.410;9.740;2022-11-15T02:57:04;5.70;99.90
4964;DHT22;2497;47.410;9.740;2022-11-15T02:59:43;5.70;99.90
4964;DHT22;2497;47.410;9.740;2022-11-15T03:02:23;5.60;99.90
4964;DHT22;2497;47.410;9.740;2022-11-15T03:04:57;5.50;99.90
4964;DHT22;2497;47.410;9.740;2022-11-15T03:07:29;5.50;99.90
4964;DHT22;2497;47.410;9.740;2022-11-15T03:10:05;5.50;99.90
4964;DHT22;2497;47.410;9.740;2022-11-15T03:12:36;5.40;99.90
4964;DHT22;2497;47.410;9.740;2022-11-15T03:15:09;5.30;99.90
4964;DHT22;2497;47.410;9.740;2022-11-15T03:17:45;5.30;99.90
4964;DHT22;2497;47.410;9.740;2022-11-15T03:20:18;5.20;99.90
4964;DHT22;2497;47.410;9.740;2022-11-15T03:22:47;5.30;99.90
4964;DHT22;2497;47.410;9.740;2022-11-15T03:25:19;5.20;99.90
4964;DHT22;2497;47.410;9.740;2022-11-15T03:27:50;5.20;99.90
4964;DHT22;2497;47.410;9.740;2022-11-15T03:30:19;5.10;99.90
4964;DHT22;2497;47.410;9.740;2022-11-15T03:32:51;5.10;99.90
4964;DHT22;2497;47.410;9.740;2022-11-15T03:35:21;5.00;99.90
4964;DHT22;2497;47.410;9.740;2022-11-15T03:37:52;5.00;99.90
4964;DHT22;2497;47.410;9.740;2022-11-15T03:40:24;5.00;99.90
4964;DHT22;2497;47.410;9.740;2022-11-15T03:42:59;5.00;99.90
4964;DHT22;2497;47.410;9.740;2022-11-15T03:45:32;5.00;99.90
4964;DHT22;2497;47.410;9.740;2022-11-15T03:48:10;5.10;99.90
4964;DHT22;2497;47.410;9.740;2022-11-15T03:50:38;5.00;99.90
4964;DHT22;2497;47.410;9.740;2022-11-15T03:53:05;5.00;99.90
4964;DHT22;2497;47.410;9.740;2022-11-15T03:55:36;5.00;99.90
4964;DHT22;2497;47.410;9.740;2022-11-15T03:58:03;5.00;99.90
4964;DHT22;2497;47.410;9.740;2022-11-15T04:00:31;4.90;99.90
4964;DHT22;2497;47.410;9.740;2022-11-15T04:02:59;4.80;99.90
4964;DHT22;2497;47.410;9.740;2022-11-15T04:05:28;4.80;99.90
4964;DHT22;2497;47.410;9.740;2022-11-15T04:07:55;4.70;99.90
4964;DHT22;2497;47.410;9.740;2022-11-15T04:10:23;4.70;99.90
4964;DHT22;2497;47.410;9.740;2022-11-15T04:12:50;4.60;99.90
4964;DHT22;2497;47.410;9.740;2022-11-15T04:15:21;4.60;99.90
4964;DHT22;2497;47.410;9.740;2022-11-15T04:17:51;4.50;99.90
4964;DHT22;2497;47.410;9.740;2022-11-15T04:20:20;4.50;99.90
4964;DHT22;2497;47.410;9.740;2022-11-15T04:23:09;4.60;99.90
4964;DHT22;2497;47.410;9.740;2022-11-15T04:25:55;4.70;99.90
4964;DHT22;2497;47.410;9.740;2022-11-15T04:28:23;4.70;99.90
4964;DHT22;2497;47.410;9.740;2022-11-15T04:30:50;4.70;99.90
4964;DHT22;2497;47.410;9.740;2022-11-15T04:33:18;4.70;99.90
4964;DHT22;2497;47.410;9.740;2022-11-15T04:35:46;4.70;99.90
4964;DHT22;2497;47.410;9.740;2022-11-15T04:38:35;4.70;99.90
4964;DHT22;2497;47.410;9.740;2022-11-15T04:41:02;4.80;99.90
4964;DHT22;2497;47.410;9.740;2022-11-15T04:43:29;4.70;99.90
4964;DHT22;2497;47.410;9.740;2022-11-15T04:45:57;4.80;99.90
4964;DHT22;2497;47.410;9.740;2022-11-15T04:48:25;4.80;99.90
4964;DHT22;2497;47.410;9.740;2022-11-15T04:50:52;4.90;99.90
4964;DHT22;2497;47.410;9.740;2022-11-15T04:53:20;5.10;99.90
4964;DHT22;2497;47.410;9.740;2022-11-15T04:55:48;5.10;99.90
4964;DHT22;2497;47.410;9.740;2022-11-15T04:58:16;5.10;99.90
4964;DHT22;2497;47.410;9.740;2022-11-15T05:00:43;5.10;99.90
4964;DHT22;2497;47.410;9.740;2022-11-15T05:03:11;5.10;99.90
4964;DHT22;2497;47.410;9.740;2022-11-15T05:05:54;5.10;99.90
4964;DHT22;2497;47.410;9.740;2022-11-15T05:08:22;5.00;99.90
4964;DHT22;2497;47.410;9.740;2022-11-15T05:10:51;5.00;99.90
4964;DHT22;2497;47.410;9.740;2022-11-15T05:13:19;5.00;99.90
4964;DHT22;2497;47.410;9.740;2022-11-15T05:15:47;5.00;99.90
4964;DHT22;2497;47.410;9.740;2022-11-15T05:18:14;5.00;99.90
4964;DHT22;2497;47.410;9.740;2022-11-15T05:20:42;5.00;99.90
4964;DHT22;2497;47.410;9.740;2022-11-15T05:23:10;5.00;99.90
4964;DHT22;2497;47.410;9.740;2022-11-15T05:25:37;5.00;99.90
4964;DHT22;2497;47.410;9.740;2022-11-15T05:28:07;5.10;99.90
4964;DHT22;2497;47.410;9.740;2022-11-15T05:30:34;5.10;99.90
4964;DHT22;2497;47.410;9.740;2022-11-15T05:33:02;5.10;99.90
4964;DHT22;2497;47.410;9.740;2022-11-15T05:35:34;5.10;99.90
4964;DHT22;2497;47.410;9.740;2022-11-15T05:38:04;5.10;99.90
4964;DHT22;2497;47.410;9.740;2022-11-15T05:40:32;5.10;99.90
4964;DHT22;2497;47.410;9.740;2022-11-15T05:43:01;5.10;99.90
4964;DHT22;2497;47.410;9.740;2022-11-15T05:45:32;5.10;99.90
4964;DHT22;2497;47.410;9.740;2022-11-15T05:48:04;5.00;99.90
4964;DHT22;2497;47.410;9.740;2022-11-15T05:50:34;5.00;99.90
4964;DHT22;2497;47.410;9.740;2022-11-15T05:53:03;4.90;99.90
4964;DHT22;2497;47.410;9.740;2022-11-15T05:55:31;4.80;99.90
4964;DHT22;2497;47.410;9.740;2022-11-15T05:57:59;4.80;99.90
4964;DHT22;2497;47.410;9.740;2022-11-15T06:00:26;4.70;99.90
4964;DHT22;2497;47.410;9.740;2022-11-15T06:02:56;4.70;99.90
4964;DHT22;2497;47.410;9.740;2022-11-15T06:05:23;4.60;99.90
4964;DHT22;2497;47.410;9.740;2022-11-15T06:07:51;4.60;99.90
4964;DHT22;2497;47.410;9.740;2022-11-15T06:10:18;4.50;99.90
4964;DHT22;2497;47.410;9.740;2022-11-15T06:12:46;4.50;99.90
4964;DHT22;2497;47.410;9.740;2022-11-15T06:15:13;4.50;99.90
4964;DHT22;2497;47.410;9.740;2022-11-15T06:17:41;4.50;99.90
4964;DHT22;2497;47.410;9.740;2022-11-15T06:20:12;4.50;99.90
4964;DHT22;2497;47.410;9.740;2022-11-15T06:22:42;4.60;99.90
4964;DHT22;2497;47.410;9.740;2022-11-15T06:25:09;4.70;99.90
4964;DHT22;2497;47.410;9.740;2022-11-15T06:27:37;4.80;99.90
4964;DHT22;2497;47.410;9.740;2022-11-15T06:30:05;4.80;99.90
4964;DHT22;2497;47.410;9.740;2022-11-15T06:32:32;4.70;99.90
4964;DHT22;2497;47.410;9.740;2022-11-15T06:35:00;4.80;99.90
4964;DHT22;2497;47.410;9.740;2022-11-15T06:37:29;5.00;99.90
4964;DHT22;2497;47.410;9.740;2022-11-15T06:39:57;5.20;99.90
4964;DHT22;2497;47.410;9.740;2022-11-15T06:42:24;5.40;99.90
4964;DHT22;2497;47.410;9.740;2022-11-15T06:44:52;5.40;99.90
4964;DHT22;2497;47.410;9.740;2022-11-15T06:47:20;5.30;99.90
4964;DHT22;2497;47.410;9.740;2022-11-15T06:49:47;5.20;99.90
4964;DHT22;2497;47.410;9.740;2022-11-15T06:52:14;5.10;99.90
4964;DHT22;2497;47.410;9.740;2022-11-15T06:54:45;5.10;99.90
4964;DHT22;2497;47.410;9.740;2022-11-15T06:57:13;5.10;99.90
4964;DHT22;2497;47.410;9.740;2022-11-15T06:59:40;5.10;99.90
4964;DHT22;2497;47.410;9.740;2022-11-15T07:02:12;5.20;99.90
4964;DHT22;2497;47.410;9.740;2022-11-15T07:04:39;5.30;99.90
4964;DHT22;2497;47.410;9.740;2022-11-15T07:07:07;5.60;99.90
4964;DHT22;2497;47.410;9.740;2022-11-15T07:09:35;5.60;99.90
4964;DHT22;2497;47.410;9.740;2022-11-15T07:12:04;5.80;99.90
4964;DHT22;2497;47.410;9.740;2022-11-15T07:14:32;5.80;99.90
4964;DHT22;2497;47.410;9.740;2022-11-15T07:17:00;5.80;99.90
4964;DHT22;2497;47.410;9.740;2022-11-15T07:19:30;5.90;99.90
4964;DHT22;2497;47.410;9.740;2022-11-15T07:21:57;5.90;99.90
4964;DHT22;2497;47.410;9.740;2022-11-15T07:24:24;5.90;99.90
4964;DHT22;2497;47.410;9.740;2022-11-15T07:26:52;5.80;99.90
4964;DHT22;2497;47.410;9.740;2022-11-15T07:29:21;5.80;99.90
4964;DHT22;2497;47.410;9.740;2022-11-15T07:31:49;5.70;99.90
4964;DHT22;2497;47.410;9.740;2022-11-15T07:34:17;5.60;99.90
4964;DHT22;2497;47.410;9.740;2022-11-15T07:36:46;5.60;99.90
4964;DHT22;2497;47.410;9.740;2022-11-15T07:39:14;5.70;99.90
4964;DHT22;2497;47.410;9.740;2022-11-15T07:41:41;5.80;99.90
4964;DHT22;2497;47.410;9.740;2022-11-15T07:44:09;5.90;99.90
4964;DHT22;2497;47.410;9.740;2022-11-15T07:46:38;5.90;99.90
4964;DHT22;2497;47.410;9.740;2022-11-15T07:49:06;5.90;99.90
4964;DHT22;2497;47.410;9.740;2022-11-15T07:51:33;5.90;99.90
4964;DHT22;2497;47.410;9.740;2022-11-15T07:54:01;6.00;99.90
4964;DHT22;2497;47.410;9.740;2022-11-15T07:56:29;6.10;99.90
4964;DHT22;2497;47.410;9.740;2022-11-15T07:58:56;6.20;99.90
4964;DHT22;2497;47.410;9.740;2022-11-15T08:01:25;6.20;99.90
4964;DHT22;2497;47.410;9.740;2022-11-15T08:03:54;6.30;99.90
4964;DHT22;2497;47.410;9.740;2022-11-15T08:06:21;6.30;99.90
4964;DHT22;2497;47.410;9.740;2022-11-15T08:08:49;6.40;99.90
4964;DHT22;2497;47.410;9.740;2022-11-15T08:11:17;6.50;99.90
4964;DHT22;2497;47.410;9.740;2022-11-15T08:13:47;6.60;99.90
4964;DHT22;2497;47.410;9.740;2022-11-15T08:16:14;6.70;99.90
4964;DHT22;2497;47.410;9.740;2022-11-15T08:18:42;6.80;99.90
4964;DHT22;2497;47.410;9.740;2022-11-15T08:21:13;6.90;99.90
4964;DHT22;2497;47.410;9.740;2022-11-15T08:23:42;7.00;99.90
4964;DHT22;2497;47.410;9.740;2022-11-15T08:26:10;7.10;99.90
4964;DHT22;2497;47.410;9.740;2022-11-15T08:28:37;7.20;99.90
4964;DHT22;2497;47.410;9.740;2022-11-15T08:31:05;7.20;99.90
4964;DHT22;2497;47.410;9.740;2022-11-15T08:33:32;7.30;99.90
4964;DHT22;2497;47.410;9.740;2022-11-15T08:36:00;7.40;99.90
4964;DHT22;2497;47.410;9.740;2022-11-15T08:38:30;7.40;99.90
4964;DHT22;2497;47.410;9.740;2022-11-15T08:41:02;7.60;99.90
4964;DHT22;2497;47.410;9.740;2022-11-15T08:43:30;7.70;99.90
4964;DHT22;2497;47.410;9.740;2022-11-15T08:45:58;7.80;99.90
4964;DHT22;2497;47.410;9.740;2022-11-15T08:48:26;7.90;99.90
4964;DHT22;2497;47.410;9.740;2022-11-15T08:50:54;7.90;99.90
4964;DHT22;2497;47.410;9.740;2022-11-15T08:53:22;7.90;99.90
4964;DHT22;2497;47.410;9.740;2022-11-15T08:55:51;7.90;99.90
4964;DHT22;2497;47.410;9.740;2022-11-15T08:58:18;8.00;99.90
4964;DHT22;2497;47.410;9.740;2022-11-15T09:00:46;8.10;99.90
4964;DHT22;2497;47.410;9.740;2022-11-15T09:03:14;8.10;99.90
4964;DHT22;2497;47.410;9.740;2022-11-15T09:05:41;8.00;99.90
4964;DHT22;2497;47.410;9.740;2022-11-15T09:08:09;8.10;99.90
4964;DHT22;2497;47.410;9.740;2022-11-15T09:10:37;8.10;99.90
4964;DHT22;2497;47.410;9.740;2022-11-15T09:13:05;8.00;99.90
4964;DHT22;2497;47.410;9.740;2022-11-15T09:15:33;8.10;99.90
4964;DHT22;2497;47.410;9.740;2022-11-15T09:18:00;8.20;99.90
4964;DHT22;2497;47.410;9.740;2022-11-15T09:20:28;8.30;99.90
4964;DHT22;2497;47.410;9.740;2022-11-15T09:22:59;8.30;99.90
4964;DHT22;2497;47.410;9.740;2022-11-15T09:25:27;8.50;99.90
4964;DHT22;2497;47.410;9.740;2022-11-15T09:27:55;8.60;99.90
4964;DHT22;2497;47.410;9.740;2022-11-15T09:30:25;8.80;99.90
4964;DHT22;2497;47.410;9.740;2022-11-15T09:32:53;8.90;99.90
4964;DHT22;2497;47.410;9.740;2022-11-15T09:35:21;8.90;99.90
4964;DHT22;2497;47.410;9.740;2022-11-15T09:37:48;9.00;99.90
4964;DHT22;2497;47.410;9.740;2022-11-15T09:40:17;9.10;99.90
4964;DHT22;2497;47.410;9.740;2022-11-15T09:43:09;9.20;99.90
4964;DHT22;2497;47.410;9.740;2022-11-15T09:45:50;9.30;99.90
4964;DHT22;2497;47.410;9.740;2022-11-15T09:48:36;9.30;99.90
4964;DHT22;2497;47.410;9.740;2022-11-15T09:51:14;9.30;99.90
4964;DHT22;2497;47.410;9.740;2022-11-15T09:53:50;9.30;99.90
4964;DHT22;2497;47.410;9.740;2022-11-15T09:56:22;9.40;99.90
4964;DHT22;2497;47.410;9.740;2022-11-15T09:58:56;9.30;99.90
4964;DHT22;2497;47.410;9.740;2022-11-15T10:01:36;9.50;99.90
4964;DHT22;2497;47.410;9.740;2022-11-15T10:04:06;9.60;99.90
4964;DHT22;2497;47.410;9.740;2022-11-15T10:06:39;9.80;99.90
4964;DHT22;2497;47.410;9.740;2022-11-15T10:09:13;9.90;99.90
4964;DHT22;2497;47.410;9.740;2022-11-15T10:11:42;10.00;99.90
4964;DHT22;2497;47.410;9.740;2022-11-15T10:14:12;10.00;99.90
4964;DHT22;2497;47.410;9.740;2022-11-15T10:17:06;9.90;99.90
4964;DHT22;2497;47.410;9.740;2022-11-15T10:19:39;10.00;99.90
4964;DHT22;2497;47.410;9.740;2022-11-15T10:22:27;10.10;99.90
4964;DHT22;2497;47.410;9.740;2022-11-15T10:25:10;10.20;99.90
4964;DHT22;2497;47.410;9.740;2022-11-15T10:27:42;10.30;99.90
4964;DHT22;2497;47.410;9.740;2022-11-15T10:30:13;10.40;99.90
4964;DHT22;2497;47.410;9.740;2022-11-15T10:32:43;10.40;99.90
4964;DHT22;2497;47.410;9.740;2022-11-15T10:35:25;10.60;99.90
4964;DHT22;2497;47.410;9.740;2022-11-15T10:38:05;10.70;99.90
4964;DHT22;2497;47.410;9.740;2022-11-15T10:40:33;10.80;99.90
4964;DHT22;2497;47.410;9.740;2022-11-15T10:43:06;10.80;99.90
4964;DHT22;2497;47.410;9.740;2022-11-15T10:45:39;10.80;99.90
4964;DHT22;2497;47.410;9.740;2022-11-15T10:48:26;10.90;99.90
4964;DHT22;2497;47.410;9.740;2022-11-15T10:50:55;10.80;99.90
4964;DHT22;2497;47.410;9.740;2022-11-15T10:53:29;10.90;99.90
4964;DHT22;2497;47.410;9.740;2022-11-15T10:56:02;10.90;99.90
4964;DHT22;2497;47.410;9.740;2022-11-15T10:58:34;10.90;99.90
4964;DHT22;2497;47.410;9.740;2022-11-15T11:01:13;11.00;99.90
4964;DHT22;2497;47.410;9.740;2022-11-15T11:03:44;11.10;99.90
4964;DHT22;2497;47.410;9.740;2022-11-15T11:06:16;11.20;99.90
4964;DHT22;2497;47.410;9.740;2022-11-15T11:08:56;11.40;99.90
4964;DHT22;2497;47.410;9.740;2022-11-15T11:11:24;11.80;99.90
4964;DHT22;2497;47.410;9.740;2022-11-15T11:13:52;11.90;99.90
4964;DHT22;2497;47.410;9.740;2022-11-15T11:16:42;12.20;99.90
4964;DHT22;2497;47.410;9.740;2022-11-15T11:19:35;12.30;99.90
4964;DHT22;2497;47.410;9.740;2022-11-15T11:22:15;12.50;99.90
4964;DHT22;2497;47.410;9.740;2022-11-15T11:24:48;12.70;99.90
4964;DHT22;2497;47.410;9.740;2022-11-15T11:27:31;12.90;99.90
4964;DHT22;2497;47.410;9.740;2022-11-15T11:30:08;12.90;99.90
4964;DHT22;2497;47.410;9.740;2022-11-15T11:35:32;13.20;99.90
4964;DHT22;2497;47.410;9.740;2022-11-15T11:38:21;13.40;99.90
4964;DHT22;2497;47.410;9.740;2022-11-15T11:40:59;13.70;99.90
4964;DHT22;2497;47.410;9.740;2022-11-15T11:43:40;13.80;99.90
4964;DHT22;2497;47.410;9.740;2022-11-15T11:46:26;13.70;99.90
4964;DHT22;2497;47.410;9.740;2022-11-15T11:49:00;13.20;99.90
4964;DHT22;2497;47.410;9.740;2022-11-15T11:51:36;13.00;99.90
4964;DHT22;2497;47.410;9.740;2022-11-15T11:54:12;13.20;99.90
4964;DHT22;2497;47.410;9.740;2022-11-15T11:56:41;13.50;99.90
4964;DHT22;2497;47.410;9.740;2022-11-15T11:59:16;13.60;99.90
4964;DHT22;2497;47.410;9.740;2022-11-15T12:01:46;13.90;99.90
4964;DHT22;2497;47.410;9.740;2022-11-15T12:04:18;13.90;99.90
4964;DHT22;2497;47.410;9.740;2022-11-15T12:06:51;13.70;99.90
4964;DHT22;2497;47.410;9.740;2022-11-15T12:09:23;13.80;99.90
4964;DHT22;2497;47.410;9.740;2022-11-15T12:12:00;13.90;99.90
4964;DHT22;2497;47.410;9.740;2022-11-15T12:14:33;14.10;99.90
4964;DHT22;2497;47.410;9.740;2022-11-15T12:17:02;13.80;99.90
4964;DHT22;2497;47.410;9.740;2022-11-15T12:19:30;13.70;99.90
4964;DHT22;2497;47.410;9.740;2022-11-15T12:22:04;13.50;99.90
4964;DHT22;2497;47.410;9.740;2022-11-15T12:24:35;13.60;99.90
4964;DHT22;2497;47.410;9.740;2022-11-15T12:27:12;13.70;99.90
4964;DHT22;2497;47.410;9.740;2022-11-15T12:29:45;13.50;99.90
4964;DHT22;2497;47.410;9.740;2022-11-15T12:32:24;13.40;99.90
4964;DHT22;2497;47.410;9.740;2022-11-15T12:34:52;13.30;99.90
4964;DHT22;2497;47.410;9.740;2022-11-15T12:37:47;13.00;99.90
4964;DHT22;2497;47.410;9.740;2022-11-15T12:40:36;12.80;99.90
4964;DHT22;2497;47.410;9.740;2022-11-15T12:46:13;12.20;99.90
4964;DHT22;2497;47.410;9.740;2022-11-15T12:48:55;12.20;99.90
4964;DHT22;2497;47.410;9.740;2022-11-15T12:54:57;12.10;99.90
4964;DHT22;2497;47.410;9.740;2022-11-15T12:57:39;12.00;99.90
4964;DHT22;2497;47.410;9.740;2022-11-15T13:03:28;11.80;99.90
4964;DHT22;2497;47.410;9.740;2022-11-15T13:06:08;11.70;99.90
4964;DHT22;2497;47.410;9.740;2022-11-15T13:08:41;11.70;99.90
4964;DHT22;2497;47.410;9.740;2022-11-15T13:11:49;11.60;99.90
4964;DHT22;2497;47.410;9.740;2022-11-15T13:14:42;11.70;99.90
4964;DHT22;2497;47.410;9.740;2022-11-15T13:17:32;11.80;99.90
4964;DHT22;2497;47.410;9.740;2022-11-15T13:20:11;11.70;99.90
4964;DHT22;2497;47.410;9.740;2022-11-15T13:22:44;11.70;99.90
4964;DHT22;2497;47.410;9.740;2022-11-15T13:25:58;11.70;99.90
4964;DHT22;2497;47.410;9.740;2022-11-15T13:28:33;11.80;99.90
4964;DHT22;2497;47.410;9.740;2022-11-15T13:33:58;11.90;99.90
4964;DHT22;2497;47.410;9.740;2022-11-15T13:36:29;11.90;99.90
4964;DHT22;2497;47.410;9.740;2022-11-15T13:39:01;12.00;99.90
4964;DHT22;2497;47.410;9.740;2022-11-15T13:41:31;12.10;99.90
4964;DHT22;2497;47.410;9.740;2022-11-15T13:44:01;12.10;99.90
4964;DHT22;2497;47.410;9.740;2022-11-15T13:46:30;12.20;99.90
4964;DHT22;2497;47.410;9.740;2022-11-15T13:48:59;12.30;99.90
4964;DHT22;2497;47.410;9.740;2022-11-15T13:51:33;12.20;99.90
4964;DHT22;2497;47.410;9.740;2022-11-15T13:54:07;12.50;99.90
4964;DHT22;2497;47.410;9.740;2022-11-15T13:56:36;12.50;99.90
4964;DHT22;2497;47.410;9.740;2022-11-15T13:59:10;12.50;99.90
4964;DHT22;2497;47.410;9.740;2022-11-15T14:01:41;12.60;99.90
4964;DHT22;2497;47.410;9.740;2022-11-15T14:04:12;12.60;99.90
4964;DHT22;2497;47.410;9.740;2022-11-15T14:06:45;12.50;99.90
4964;DHT22;2497;47.410;9.740;2022-11-15T14:09:34;12.30;99.90
4964;DHT22;2497;47.410;9.740;2022-11-15T14:14:47;12.00;99.90
4964;DHT22;2497;47.410;9.740;2022-11-15T14:17:20;11.40;99.90
4964;DHT22;2497;47.410;9.740;2022-11-15T14:19:49;11.20;99.90
4964;DHT22;2497;47.410;9.740;2022-11-15T14:22:20;10.90;99.90
4964;DHT22;2497;47.410;9.740;2022-11-15T14:25:07;10.80;99.90
4964;DHT22;2497;47.410;9.740;2022-11-15T14:27:34;10.70;99.90
4964;DHT22;2497;47.410;9.740;2022-11-15T14:30:04;10.70;99.90
4964;DHT22;2497;47.410;9.740;2022-11-15T14:32:48;10.70;99.90
4964;DHT22;2497;47.410;9.740;2022-11-15T14:35:17;10.60;99.90
4964;DHT22;2497;47.410;9.740;2022-11-15T14:37:45;10.60;99.90
4964;DHT22;2497;47.410;9.740;2022-11-15T14:40:14;10.50;99.90
4964;DHT22;2497;47.410;9.740;2022-11-15T14:42:43;10.40;99.90
4964;DHT22;2497;47.410;9.740;2022-11-15T14:45:14;10.30;99.90
4964;DHT22;2497;47.410;9.740;2022-11-15T14:47:43;10.20;99.90
4964;DHT22;2497;47.410;9.740;2022-11-15T14:50:12;10.20;99.90
4964;DHT22;2497;47.410;9.740;2022-11-15T14:52:40;10.20;99.90
4964;DHT22;2497;47.410;9.740;2022-11-15T14:55:16;10.20;99.90
4964;DHT22;2497;47.410;9.740;2022-11-15T14:57:45;10.20;99.90
4964;DHT22;2497;47.410;9.740;2022-11-15T15:00:17;10.20;99.90
4964;DHT22;2497;47.410;9.740;2022-11-15T15:02:46;10.20;99.90
4964;DHT22;2497;47.410;9.740;2022-11-15T15:05:16;10.20;99.90
4964;DHT22;2497;47.410;9.740;2022-11-15T15:07:43;10.20;99.90
4964;DHT22;2497;47.410;9.740;2022-11-15T15:10:11;10.30;99.90
4964;DHT22;2497;47.410;9.740;2022-11-15T15:12:40;10.30;99.90
4964;DHT22;2497;47.410;9.740;2022-11-15T15:15:14;10.30;99.90
4964;DHT22;2497;47.410;9.740;2022-11-15T15:17:42;10.30;99.90
4964;DHT22;2497;47.410;9.740;2022-11-15T15:20:10;10.30;99.90
4964;DHT22;2497;47.410;9.740;2022-11-15T15:22:38;10.20;99.90
4964;DHT22;2497;47.410;9.740;2022-11-15T15:25:21;10.20;99.90
4964;DHT22;2497;47.410;9.740;2022-11-15T15:27:48;10.20;99.90
4964;DHT22;2497;47.410;9.740;2022-11-15T15:30:18;10.20;99.90
4964;DHT22;2497;47.410;9.740;2022-11-15T15:32:47;10.10;99.90
4964;DHT22;2497;47.410;9.740;2022-11-15T15:35:16;10.10;99.90
4964;DHT22;2497;47.410;9.740;2022-11-15T15:37:45;10.10;99.90
4964;DHT22;2497;47.410;9.740;2022-11-15T15:40:15;10.10;99.90
4964;DHT22;2497;47.410;9.740;2022-11-15T15:42:42;10.10;99.90
4964;DHT22;2497;47.410;9.740;2022-11-15T15:45:10;10.00;99.90
4964;DHT22;2497;47.410;9.740;2022-11-15T15:47:39;10.00;99.90
4964;DHT22;2497;47.410;9.740;2022-11-15T15:50:20;9.90;99.90
4964;DHT22;2497;47.410;9.740;2022-11-15T15:52:48;9.90;99.90
4964;DHT22;2497;47.410;9.740;2022-11-15T15:55:16;9.90;99.90
4964;DHT22;2497;47.410;9.740;2022-11-15T15:57:43;9.80;99.90
4964;DHT22;2497;47.410;9.740;2022-11-15T16:00:12;9.80;99.90
4964;DHT22;2497;47.410;9.740;2022-11-15T16:02:41;9.70;99.90
4964;DHT22;2497;47.410;9.740;2022-11-15T16:05:10;9.70;99.90
4964;DHT22;2497;47.410;9.740;2022-11-15T16:07:38;9.70;99.90
4964;DHT22;2497;47.410;9.740;2022-11-15T16:10:21;9.60;99.90
4964;DHT22;2497;47.410;9.740;2022-11-15T16:12:50;9.50;99.90
4964;DHT22;2497;47.410;9.740;2022-11-15T16:15:19;9.40;99.90
4964;DHT22;2497;47.410;9.740;2022-11-15T16:17:50;9.40;99.90
4964;DHT22;2497;47.410;9.740;2022-11-15T16:20:29;9.40;99.90
4964;DHT22;2497;47.410;9.740;2022-11-15T16:22:57;9.30;99.90
4964;DHT22;2497;47.410;9.740;2022-11-15T16:25:25;9.30;99.90
4964;DHT22;2497;47.410;9.740;2022-11-15T16:27:53;9.30;99.90
4964;DHT22;2497;47.410;9.740;2022-11-15T16:30:22;9.10;99.90
4964;DHT22;2497;47.410;9.740;2022-11-15T16:32:51;9.10;99.90
4964;DHT22;2497;47.410;9.740;2022-11-15T16:35:19;9.10;99.90
4964;DHT22;2497;47.410;9.740;2022-11-15T16:37:47;9.10;99.90
4964;DHT22;2497;47.410;9.740;2022-11-15T16:40:24;9.10;99.90
4964;DHT22;2497;47.410;9.740;2022-11-15T16:42:52;9.10;99.90
4964;DHT22;2497;47.410;9.740;2022-11-15T16:45:21;9.10;99.90
4964;DHT22;2497;47.410;9.740;2022-11-15T16:47:48;9.10;99.90
4964;DHT22;2497;47.410;9.740;2022-11-15T16:50:22;9.00;99.90
4964;DHT22;2497;47.410;9.740;2022-11-15T16:52:52;9.10;99.90
4964;DHT22;2497;47.410;9.740;2022-11-15T16:55:20;9.10;99.90
4964;DHT22;2497;47.410;9.740;2022-11-15T16:57:48;9.00;99.90
4964;DHT22;2497;47.410;9.740;2022-11-15T17:00:18;9.00;99.90